Edmonton International Airport

CYEG · 艾伯塔, 加拿大

METAR的历史 CYEG · Edmonton International Airport

下面你可以看到过去几天的METARs。 选择年份以浏览从2007年开始的旧METAR。

2024年2月28日

时间 代码 天气 温度 能见度 天花板 METAR/SPECI
01:00
V
-22 °C 20 mi 11.000 ft 140° 140° 12 kt METAR CYEG 280800Z 14012KT 20SM BKN110 BKN240 M22/M26 A2976 RMK AC5CI2 SLP152
00:00
V
-22 °C 20 mi 15.000 ft 140° 140° 13 kt METAR CYEG 280700Z 14013KT 20SM BKN150 BKN230 M22/M26 A2979 RMK AC5CI2 SLP163

2024年2月27日

时间 代码 天气 温度 能见度 天花板 METAR/SPECI
23:00
V
-22 °C 20 mi 13.000 ft 140° 140° 11 kt METAR CYEG 280600Z 14011KT 20SM BKN130 M22/M26 A2983 RMK AS7 SLP177
22:00
V
-22 °C 20 mi 20.000 ft 150° 150° 11 kt METAR CYEG 280500Z 15011KT 20SM SCT180 BKN200 M22/M27 A2986 RMK AC3CI4 SLP191
21:00
V
-22 °C 20 mi 20.000 ft 150° 150° 9 kt METAR CYEG 280400Z 15009KT 20SM BKN200 M22/M26 A2990 RMK CI5 SLP206
20:00
V
-23 °C 20 mi - 150° 150° 9 kt METAR CYEG 280300Z 15009KT 20SM FEW220 M23/M27 A2992 RMK CI2 SLP216
19:00
V
-24 °C 20 mi - 150° 150° 8 kt METAR CYEG 280200Z 15008KT 20SM FEW220 M24/M27 A2995 RMK CI1 CI TR FROIN SLP228
18:00
V
-23 °C 20 mi - 150° 150° 6 kt METAR CYEG 280100Z 15006KT 20SM FEW220 M23/M27 A2997 RMK CI1 CI TR SLP231
17:00
V
-21 °C 15 mi - 140° 140° 6 kt METAR CYEG 280000Z 14006KT 15SM FEW020 FEW080 M21/M27 A2999 RMK SC1AC1 SC TR AC TR SLP235
16:00
V
-19 °C 15 mi - 210° 210° 4 kt METAR CYEG 272300Z 21004KT 15SM FEW020 FEW080 M19/M26 A3001 RMK SC1AC1 SC TR AC TR SLP242
15:00
V
-19 °C 15 mi - 190° 190° 3 kt METAR CYEG 272200Z 19003KT 15SM FEW020 FEW080 M19/M25 A3003 RMK SC1AC1 SC TR AC TR SLP246
14:00
V
-19 °C 15 mi - 190° 190° 3 kt METAR CYEG 272100Z 19003KT 150V220 15SM FEW020 FEW080 M19/M25 A3005 RMK SC1AC2 SC TR SLP254
13:00
V
-20 °C 15 mi - 240° 240° 2 kt METAR CYEG 272000Z 24002KT 15SM FEW018 SCT084 M20/M25 A3007 RMK SC1AC3 SC TR SLP260
12:42
V
-20 °C 15 mi - Var Var 2 kt METAR CYEG 271942Z VRB02KT 15SM FEW018 SCT250 M20/M24 A3007 RMK SC1CI3 SC TR CC ASOCTD SLP261
12:00
V
-20 °C 15 mi - 240° 240° 2 kt METAR CYEG 271900Z CCA 24002KT 15SM -SHSN FEW018 FEW250 M20/M24 A3008 RMK SC1CI2 SC TR CVCTV CLD EMBD SLP262
11:14
V
-21 °C 10 mi - 250° 250° 2 kt METAR CYEG 271814Z 25002KT 10SM -SN FEW030 FEW250 M21/M25 A3009 RMK CU1CI2 CU TR SLP267
11:00
M
-22 °C 4 mi 1.500 ft 220° 220° 2 kt METAR CYEG 271800Z 22002KT 4SM -SN BKN015 BKN040 BKN250 M22/M25 A3009 RMK ST6SC1CI3 LWR CLD DIF SLP267
10:52
M
-22 °C 4 mi 1.500 ft 200° 200° 2 kt METAR CYEG 271752Z 20002KT 4SM -SN BKN015 BKN040 BKN250 M22/M25 A3009 RMK SC6SC1CI3 LWR CLD DIF SLP268
10:00
V
-24 °C 5 mi 25.000 ft 180° 180° 3 kt METAR CYEG 271700Z 18003KT 5SM -SN SCT018 BKN250 M24/M26 A3008 RMK SC3CC3 SLP267
09:30
V
-25 °C 5 mi 9.300 ft 210° 210° 3 kt METAR CYEG 271630Z 21003KT 5SM -SN SCT030 BKN093 M25/M28 A3009 RMK SC4AC3 SLP269
09:00
V
-26 °C 8 mi 9.300 ft 190° 190° 3 kt METAR CYEG 271600Z 19003KT 8SM -SN SCT055 BKN093 BKN250 M26/M29 A3008 RMK SC3AC2CC2 SLP268
08:00
V
-27 °C 6 mi 5.400 ft 220° 220° 4 kt METAR CYEG 271500Z 22004KT 6SM -SN FEW040 BKN054 BKN250 M27/M30 A3007 RMK SC2SC3CI2 SLP264
07:00
V
-27 °C 6 mi 13.000 ft 210° 210° 3 kt METAR CYEG 271400Z 21003KT 6SM -SN SCT040 BKN130 BKN250 M27/M30 A3006 RMK SC3AC2CI2 SLP263
06:27
V
-26 °C 6 mi 4.300 ft 210° 210° 2 kt METAR CYEG 271327Z 21002KT 6SM -SN BKN043 BKN250 M26/M29 A3006 RMK SC5CI2 SLP260
06:00
V
-25 °C 10 mi 5.700 ft 210° 210° 2 kt METAR CYEG 271300Z 21002KT 10SM -SN BKN057 BKN092 M25/M28 A3007 RMK SC5AC2 SLP262
05:00
V
-25 °C 10 mi 9.200 ft 360° 360° 0 kt METAR CYEG 271200Z 00000KT 10SM -SN BKN092 M25/M27 A3006 RMK AC7 SLP258
04:00
V
-25 °C 10 mi 8.500 ft 360° 360° 0 kt METAR CYEG 271100Z 00000KT 10SM -SN BKN085 M25/M28 A3005 RMK AC7 SLP254
03:00
V
-26 °C 10 mi 8.500 ft 200° 200° 3 kt METAR CYEG 271000Z 20003KT 10SM -SN BKN085 M26/M28 A3005 RMK AC7 SLP255
02:00
V
-26 °C 10 mi 9.400 ft 210° 210° 4 kt METAR CYEG 270900Z 21004KT 10SM -SN BKN094 M26/M28 A3005 RMK AC7 SLP254
01:00
V
-25 °C 8 mi 25.000 ft 210° 210° 3 kt METAR CYEG 270800Z 21003KT 8SM -SN SCT068 BKN250 M25/M27 A3004 RMK AC4CI2 SLP252
00:00
V
-23 °C 7 mi 6.800 ft 200° 200° 3 kt METAR CYEG 270700Z 20003KT 7SM -SN BKN068 M23/M25 A3005 RMK AC7 SLP251

2024年2月26日

时间 代码 天气 温度 能见度 天花板 METAR/SPECI
23:00
M
-22 °C 5 mi 3.000 ft 290° 290° 2 kt METAR CYEG 270600Z 29002KT 5SM -SN BKN030 BKN061 M22/M25 A3005 RMK SC5SC2 SLP251
22:00
V
-22 °C 6 mi 6.100 ft 290° 290° 3 kt METAR CYEG 270500Z 29003KT 6SM -SN BKN061 OVC078 M22/M24 A3004 RMK SC7AC1 SLP248
21:34
V
-22 °C 6 mi 7.800 ft 310° 310° 2 kt METAR CYEG 270434Z 31002KT 6SM -SN SCT041 OVC078 M22/M24 A3003 RMK SC3AC5 SLP245
21:00
M
-21 °C 5 mi 2.700 ft 340° 340° 3 kt METAR CYEG 270400Z 34003KT 5SM -SN OVC027 M21/M24 A3002 RMK SC8 SLP242
20:00
V
-21 °C 5 mi 3.200 ft 320° 320° 6 kt METAR CYEG 270300Z 32006KT 5SM -SN OVC032 M21/M24 A3001 RMK SC8 SLP238
19:24
V
-21 °C 6 mi 8.000 ft 330° 330° 5 kt METAR CYEG 270224Z 33005KT 6SM -SN FEW020 SCT038 OVC080 M21/M24 A3001 RMK SC1SC3AC4 SLP235
19:00
M
-21 °C 4 mi 3.800 ft 340° 340° 5 kt METAR CYEG 270200Z 34005KT 4SM -SN FEW020 OVC038 M21/M24 A3000 RMK SC1SC7 SLP232
18:00
V
-20 °C 5 mi 4.600 ft 350° 350° 5 kt METAR CYEG 270100Z 35005KT 5SM -SN FEW020 OVC046 M20/M23 A2998 RMK SC2SC6 SLP225
17:50
M
-20 °C 4 mi 4.200 ft 350° 350° 7 kt METAR CYEG 270050Z 35007KT 4SM -SN SCT020 OVC042 M20/M23 A2998 RMK SC3SC5 SLP225
17:35
I
-20 °C 2¼ mi 2.100 ft 340° 340° 8 kt METAR CYEG 270035Z 34008KT 2 1/4SM -SN BR BKN021 OVC160 M20/M23 A2998 RMK SN4SC3AS1 CIG DIF SLP224
17:00
V
-20 °C 5 mi 4.100 ft 350° 350° 7 kt METAR CYEG 270000Z 35007KT 5SM -SN BKN041 BKN160 OVC220 M20/M24 A2997 RMK SC5AS2CS1 CIG DIF SLP218
16:00
M
-20 °C 4 mi 3.200 ft 340° 340° 8 kt METAR CYEG 262300Z 34008KT 4SM -SN BR BKN032 BKN160 OVC220 M20/M23 A2996 RMK SC5AS1CS2 CIG DIF SLP214
15:00
M
-19 °C 4 mi 2.200 ft 350° 350° 9 kt METAR CYEG 262200Z 35009KT 4SM -SN BR BKN022 BKN160 OVC220 M19/M24 A2995 RMK SC5AS2CS1 CIG DIF SLP210
14:35
M
-20 °C 4 mi 3.200 ft 350° 350° 10 kt METAR CYEG 262135Z 35010KT 4SM -SN BR BKN032 BKN160 OVC220 M20/M24 A2995 RMK SC5AS2CS1 CIG DIF SLP208
14:00
M
-19 °C 3 mi 1.800 ft 360° 360° 10 kt METAR CYEG 262100Z 36010KT 3SM -SN BR BKN018 BKN160 OVC220 M19/M24 A2995 RMK SN2SC4AS1CS1 SLP206
13:41
M
-20 °C 3 mi 2.000 ft 360° 360° 9 kt METAR CYEG 262041Z 36009KT 3SM -SN DRSN BKN020 BKN160 OVC220 M20/M24 A2994 RMK SN3SC2AS2CS1 SLP203
13:00
I
-20 °C 2½ mi 2.200 ft 350° 350° 10 kt METAR CYEG 262000Z 35010KT 2 1/2SM -SN DRSN BKN022 OVC220 M20/M24 A2994 RMK SN6SC1CS1 SLP202
12:20
I
-20 °C 1¾ mi 1.800 ft 360° 360° 10 kt METAR CYEG 261920Z 36010KT 1 3/4SM -SN DRSN OVC018 M20/M24 A2994 RMK SN6SC2 SLP202
12:00
I
-20 °C 1½ mi 1.100 ft 010° 010° 12 kt METAR CYEG 261900Z 01012KT 1 1/2SM -SN DRSN VV011 M20/M24 A2993 RMK SN8 CIG VRB 008-014 SLP200
11:28
I
-21 °C 1½ mi 1.300 ft 360° 360° 12 kt METAR CYEG 261828Z 36012KT 1 1/2SM -SN DRSN VV013 M21/M24 A2993 RMK SN8 SUN DIMLY VISBL SLP198
11:09
I
-21 °C 1½ mi 1.600 ft 350° 350° 14 kt METAR CYEG 261809Z 35014KT 1 1/2SM -SN DRSN VV016 M21/M24 A2992 RMK SN8 SUN DIMLY VISBL SLP196
11:00
I
-21 °C 1¼ mi 1.200 ft 350° 350° 13 kt METAR CYEG 261800Z 35013KT 1 1/4SM R02/5500VP6000FT/N -SN DRSN VV012 M21/M24 A2991 RMK SN8 SUN DIMLY VISBL /S02/ SLP194
10:00
I
-21 °C 1¼ mi 1.100 ft 350° 350° 13 kt METAR CYEG 261700Z 35013KT 1 1/4SM R02/5000V6000FT/D R30/5500VP6000FT/U -SN DRSN VV011 M21/M24 A2989 RMK SN8 CIG VRB 008-014 SLP183
09:00
I
-20 °C 1¼ mi 1.100 ft 010° 010° 13 kt METAR CYEG 261600Z 01013KT 1 1/4SM R02/5500V6000FT/N R30/5500VP6000FT/N -SN DRSN VV011 M20/M23 A2985 RMK SN8 CIG VRB 008-014 SLP169
08:38
I
-20 °C 1¼ mi 1.100 ft 350° 350° 14 kt METAR CYEG 261538Z 35014KT 1 1/4SM R02/5500VP6000FT/N -SN DRSN VV011 M20/M23 A2983 RMK SN8 CIG VRB 008-014 SLP162
08:32
I
-20 °C 1¾ mi 1.300 ft 350° 350° 16 kt METAR CYEG 261532Z 35016KT 1 3/4SM R02/5500VP6000FT/N R30/4500VP6000FT/D -SN DRSN VV013 M20/M23 A2983 RMK SN8 SLP161
08:17
I
-20 °C 1¾ mi 1.700 ft 350° 350° 13 kt METAR CYEG 261517Z 35013KT 1 3/4SM -SN DRSN VV017 M20/M23 A2982 RMK SN8 SLP157
08:00
I
-20 °C 1½ mi 1.100 ft 350° 350° 15 kt METAR CYEG 261500Z 35015KT 1 1/2SM -SN DRSN VV011 M20/M23 A2981 RMK SN8 CIG VRB 008-014 /S01/ SLP152
07:52
I
-20 °C 1¼ mi 1.100 ft 350° 350° 13 kt METAR CYEG 261452Z 35013KT 1 1/4SM -SN DRSN VV011 M20/M23 A2980 RMK SN8 CIG VRB 008-014 SLP150
07:44
I
-20 °C 1½ mi 1.100 ft 350° 350° 15 kt METAR CYEG 261444Z 35015KT 1 1/2SM R30/4500VP6000FT/ -SN DRSN VV011 M20/M23 A2980 RMK SN8 CIG VRB 008-014 SLP149
07:00
I
-19 °C 1 mi 900 ft 350° 350° 14 - 19 kt METAR CYEG 261400Z 35014G19KT 1SM R02/P6000FT/U R30/5500VP6000FT/U -SN DRSN VV009 M19/M22 A2977 RMK SN8 CIG VRB 006-012 SLP136
06:54
I
-19 °C 1¼ mi 900 ft 010° 010° 14 kt METAR CYEG 261354Z 01014KT 1 1/4SM R30/3500VP6000FT/U -SN DRSN VV009 M19/M22 A2976 RMK SN8 SLP134
06:00
I
-19 °C 2 mi 2.000 ft 360° 360° 15 kt METAR CYEG 261300Z 36015KT 2SM R02/5500VP6000FT/U -SN DRSN OVC020 M19/M21 A2973 RMK SN3SC5 SLP122
05:00
I
-17 °C 2 mi 2.000 ft 010° 010° 15 - 22 kt METAR CYEG 261200Z 01015G22KT 2SM R30/4000VP6000FT/D -SN DRSN OVC020 M17/M20 A2968 RMK SN3SC5 SLP103
04:31
I
-17 °C 1½ mi 2.200 ft 010° 010° 17 - 24 kt METAR CYEG 261131Z 01017G24KT 1 1/2SM R02/3500VP6000FT/U R30/4000VP6000FT/D -SN DRSN OVC022 M17/M19 A2966 RMK SN4SC4 SLP094
04:26
I
-17 °C 1¾ mi 2.200 ft 010° 010° 18 - 24 kt METAR CYEG 261126Z 01018G24KT 1 3/4SM R02/3500VP6000FT/U -SN BLSN OVC022 M17/M20 A2966 RMK BLSN3SC5 SLP093
04:00
I
-17 °C 1¼ mi 2.000 ft 360° 360° 16 - 26 kt METAR CYEG 261100Z 36016G26KT 1 1/4SM R02/3000VP6000FT/U -SN BLSN OVC020 M17/M19 A2964 RMK BLSN4SC4 /S05/ SLP087
03:52
I
-17 °C 1¼ mi 2.000 ft 360° 360° 22 - 27 kt METAR CYEG 261052Z 36022G27KT 1 1/4SM R02/3000FT/N -SN BLSN OVC020 M17/M19 A2963 RMK BLSN4NS4 PRESRR SLP085
03:00
I
-15 °C 2½ mi 2.200 ft 010° 010° 20 - 27 kt METAR CYEG 261000Z 01020G27KT 2 1/2SM -SN DRSN OVC022 M15/M17 A2958 RMK SN2SC6 SLP065
02:00
I
-13 °C 2¼ mi 1.600 ft 020° 020° 16 - 23 kt METAR CYEG 260900Z 02016G23KT 2 1/4SM R12/3000VP6000FT/U R02/3500VP6000FT/D -SN DRSN OVC016 M13/M15 A2951 RMK SN4SC4 /S03/ SLP039
01:14
I
-12 °C 1½ mi 1.700 ft 020° 020° 19 - 25 kt METAR CYEG 260814Z 02019G25KT 1 1/2SM R12/2800V4500FT/N R02/3000VP6000FT/U -SN DRSN OVC017 M12/M14 A2948 RMK SN6SC2 SLP027
01:00
I
-12 °C 1 mi 1.100 ft 020° 020° 15 - 24 kt METAR CYEG 260800Z 02015G24KT 1SM R12/4000VP6000FT/U R02/3000V5500FT/N -SN BLSN OVC011 M12/M13 A2947 RMK SN3SC5 SLP022
00:47
I
-12 °C 1½ mi 2.100 ft 030° 030° 19 - 29 kt METAR CYEG 260747Z 03019G29KT 1 1/2SM R12/2800VP6000FT/U R02/2800VP6000FT/U -SN BLSN OVC021 M12/M14 A2946 RMK BLSN3SC5 SLP018
00:33
I
-11 °C 1 mi 1.400 ft 030° 030° 21 kt METAR CYEG 260733Z 03021KT 1SM R12/4500VP6000FT/N R02/2800VP6000FT/U -SN BLSN OVC014 M11/M13 A2944 RMK BLSN4SC4 SLP013
00:19
L
-11 °C ¾ mi 400 ft 020° 020° 18 - 25 kt METAR CYEG 260719Z 02018G25KT 3/4SM R12/3500V6000FT/N R02/2200V5000FT/N -SN BLSN VV004 M11/M13 A2943 RMK BLSN8 SLP008
00:00
L
-11 °C ½ mi 400 ft 040° 040° 25 - 30 kt METAR CYEG 260700Z 04025G30KT 1/2SM R12/3000V3500FT/N R02/1600V2000FT/N -SN BLSN VV004 M11/M13 A2942 RMK BLSN8 /S01/ SLP003

2024年2月25日

时间 代码 天气 温度 能见度 天花板 METAR/SPECI
23:00
L
-10 °C ½ mi 1.400 ft 030° 030° 21 - 30 kt METAR CYEG 260600Z 03021G30KT 1/2SM R12/2000FT/N R02/3000V3500FT/N -SN BLSN OVC014 M10/M12 A2936 RMK BLSN3SC5 /S04/ SLP982